Accra/Kotoka

Airport
ICAO code: 
DGAA
Summary
ICAO Region: 
AFI
Territory: 
Location: 
Accra,
Coordinates: 
Aerial View: 
5° 36' 18.683" N, 0° 10' 0.43" W
Metar
Observation
DGAA 210400Z 28006KT 8000 NSC 25/12 Q1010 NOSIG
Station
Accra
Date/Time
2022-01-21 04:00:00
Wind direction
280°
Wind speed
06 kts
Lowest cloud amount
nil significant cloud
Temperature
25°C
Dew point
12°C
Humidity
44%
QNH
1010 hPa
Weather condition
n/a

Description

International airport serving the capital of Ghana.

Climatology

Tropical Savanna climate (Köppen climate classification Aw)

Runways

Designator Length Width Surface Rops
3/21 3403 61 ASP Yes/Yes
Airport map: 
Aerial View: 

SKYbrary Partners:

Safety knowledge contributed by: